Time;durP1;ratioP1;P1;durP2;ratioP2;P2;SDS_P1;SDS_P2;PMS_P1;PMS_P2;Temp;Humidity;BMP_temperature;BMP_pressure;BME280_temperature;BME280_humidity;BME280_pressure;Samples;Min_cycle;Max_cycle;Signal;HPM_P1;HPM_P2
2023/12/26 00:00:12;;;;;;;25.20;16.83;;;;;;;2.28;69.94;93605.97;518562;28;1055;-69
2023/12/26 00:00:28;;;;;;;26.73;16.95;;;;;;;2.26;69.69;93608.44;518724;28;920;-69
2023/12/26 00:00:43;;;;;;;26.73;17.40;;;;;;;2.26;69.90;93614.66;518680;28;745;-69
2023/12/26 00:00:59;;;;;;;24.23;17.77;;;;;;;2.29;70.25;93608.22;518585;28;862;-69
2023/12/26 00:01:14;;;;;;;25.65;18.25;;;;;;;2.33;69.94;93609.97;518665;28;777;-69
2023/12/26 00:01:30;;;;;;;28.07;18.80;;;;;;;2.35;69.89;93605.50;518584;28;1283;-69
2023/12/26 00:01:46;;;;;;;27.15;19.65;;;;;;;2.31;69.66;93596.84;518445;28;872;-69
2023/12/26 00:02:01;;;;;;;26.02;19.15;;;;;;;2.40;69.66;93612.22;518736;28;808;-69
2023/12/26 00:02:17;;;;;;;26.98;18.88;;;;;;;2.38;69.65;93604.53;518645;28;792;-69
2023/12/26 00:02:33;;;;;;;30.93;19.77;;;;;;;2.37;69.55;93619.38;518742;28;957;-69
2023/12/26 00:02:48;;;;;;;31.00;19.50;;;;;;;2.37;69.90;93610.47;518053;28;1632;-69
2023/12/26 00:03:06;;;;;;;27.57;19.33;;;;;;;2.38;69.95;93615.44;517597;28;816;-69
2023/12/26 00:03:22;;;;;;;28.38;19.80;;;;;;;2.41;69.95;93608.22;517370;28;935;-69
2023/12/26 00:03:37;;;;;;;28.10;19.75;;;;;;;2.41;69.48;93617.16;518698;28;867;-69
2023/12/26 00:03:53;;;;;;;27.77;19.97;;;;;;;2.44;69.66;93618.16;517885;28;849;-69
2023/12/26 00:04:09;;;;;;;29.33;20.07;;;;;;;2.44;70.11;93613.47;516622;28;899;-69
2023/12/26 00:04:24;;;;;;;27.08;19.45;;;;;;;2.46;69.88;93607.50;517729;28;1043;-69
2023/12/26 00:04:39;;;;;;;29.47;19.80;;;;;;;2.47;69.66;93614.47;518683;28;756;-69
2023/12/26 00:04:55;;;;;;;31.70;20.33;;;;;;;2.48;69.15;93610.47;518388;28;738;-69
2023/12/26 00:05:10;;;;;;;28.87;19.47;;;;;;;2.50;69.65;93608.00;518731;28;777;-69
2023/12/26 00:05:26;;;;;;;30.60;20.15;;;;;;;2.49;69.63;93617.44;518574;28;1608;-69
2023/12/26 00:05:41;;;;;;;30.73;20.37;;;;;;;2.49;69.46;93615.44;517685;28;804;-69
2023/12/26 00:05:57;;;;;;;30.33;20.17;;;;;;;2.50;69.34;93622.38;518070;28;991;-69
2023/12/26 00:06:12;;;;;;;30.73;20.37;;;;;;;2.49;69.75;93615.44;517214;28;1208;-69
2023/12/26 00:06:28;;;;;;;31.00;20.77;;;;;;;2.47;69.69;93611.75;518458;28;1187;-69
2023/12/26 00:06:43;;;;;;;29.83;21.10;;;;;;;2.53;69.99;93621.41;518510;28;1034;-69
2023/12/26 00:06:59;;;;;;;28.90;20.10;;;;;;;2.49;69.31;93615.44;518789;28;815;-69
2023/12/26 00:07:15;;;;;;;29.38;19.25;;;;;;;2.52;69.20;93617.19;518810;28;772;-69
2023/12/26 00:07:30;;;;;;;30.27;19.77;;;;;;;2.52;69.02;93621.88;520804;28;1432;-69
2023/12/26 00:07:46;;;;;;;30.75;20.35;;;;;;;2.53;69.70;93621.41;518380;28;1007;-70
2023/12/26 00:08:03;;;;;;;30.52;20.58;;;;;;;2.55;69.54;93618.94;518829;28;761;-69
2023/12/26 00:08:18;;;;;;;30.35;20.30;;;;;;;2.47;69.60;93617.19;518456;28;964;-69
2023/12/26 00:08:34;;;;;;;28.17;19.23;;;;;;;2.33;69.56;93621.59;518860;28;829;-69
2023/12/26 00:08:50;;;;;;;25.75;18.83;;;;;;;2.24;70.28;93619.09;518650;28;1228;-69
2023/12/26 00:09:05;;;;;;;29.83;20.03;;;;;;;2.15;70.86;93614.63;518693;28;808;-69
2023/12/26 00:09:21;;;;;;;33.13;21.25;;;;;;;2.09;70.62;93622.03;518708;28;844;-69
2023/12/26 00:09:40;;;;;;;30.60;21.57;;;;;;;1.74;70.60;93575.34;518471;28;1648;-69
2023/12/26 00:09:56;;;;;;;27.73;20.08;;;;;;;1.89;71.34;93621.44;516656;28;1113;-69
2023/12/26 00:10:12;;;;;;;23.27;17.57;;;;;;;1.84;71.82;93619.44;517481;28;733;-69
2023/12/26 00:10:28;;;;;;;21.17;17.00;;;;;;;1.79;71.53;93631.03;518847;28;875;-69
2023/12/26 00:10:43;;;;;;;28.13;18.27;;;;;;;1.73;71.63;93625.59;518271;28;773;-69
2023/12/26 00:10:59;;;;;;;33.95;19.15;;;;;;;1.67;71.90;93622.06;518450;28;1015;-69
2023/12/26 00:11:15;;;;;;;30.10;19.57;;;;;;;1.63;72.31;93634.41;518487;28;1124;-69
2023/12/26 00:11:30;;;;;;;28.85;19.98;;;;;;;1.60;72.58;93625.28;518659;28;1074;-69
2023/12/26 00:11:46;;;;;;;30.17;20.35;;;;;;;1.63;72.65;93635.16;518276;28;964;-70
2023/12/26 00:12:02;;;;;;;28.50;20.25;;;;;;;1.68;72.58;93629.00;516714;28;1971;-70
2023/12/26 00:12:17;;;;;;;29.67;19.70;;;;;;;1.72;72.59;93626.06;518474;28;1201;-70
2023/12/26 00:12:33;;;;;;;28.48;18.35;;;;;;;1.76;72.59;93626.56;518879;28;741;-69
2023/12/26 00:12:48;;;;;;;26.23;18.27;;;;;;;1.79;72.11;93625.59;518598;28;1531;-69
2023/12/26 00:13:04;;;;;;;28.38;19.60;;;;;;;1.84;72.50;93630.34;518069;28;1185;-69
2023/12/26 00:13:19;;;;;;;30.70;20.00;;;;;;;1.86;71.89;93625.16;518435;28;832;-69
2023/12/26 00:13:35;;;;;;;31.23;19.23;;;;;;;1.85;71.91;93629.09;517046;28;1070;-69
2023/12/26 00:13:51;;;;;;;29.35;18.67;;;;;;;1.83;71.92;93624.16;518457;28;836;-69
2023/12/26 00:14:06;;;;;;;29.17;19.13;;;;;;;1.81;72.39;93631.31;516854;28;847;-69
2023/12/26 00:14:22;;;;;;;29.73;19.70;;;;;;;1.81;72.52;93625.84;516832;28;785;-69
2023/12/26 00:14:37;;;;;;;28.43;19.40;;;;;;;1.80;72.69;93627.81;516718;28;849;-69
2023/12/26 00:14:53;;;;;;;26.88;19.10;;;;;;;1.81;72.42;93631.31;518333;28;904;-69
2023/12/26 00:15:09;;;;;;;25.40;18.87;;;;;;;1.82;72.64;93628.09;517339;28;884;-70
2023/12/26 00:15:25;;;;;;;24.35;17.98;;;;;;;1.85;73.02;93624.41;518677;28;1085;-69
2023/12/26 00:15:40;;;;;;;26.60;17.67;;;;;;;1.87;72.55;93627.38;517979;28;1667;-69
2023/12/26 00:15:56;;;;;;;26.20;17.23;;;;;;;1.91;72.54;93624.41;517300;28;1268;-69
2023/12/26 00:16:11;;;;;;;23.43;17.23;;;;;;;1.94;72.86;93626.16;516728;28;848;-69
2023/12/26 00:16:27;;;;;;;24.77;18.08;;;;;;;1.96;72.40;93624.44;516786;28;762;-69
2023/12/26 00:16:42;;;;;;;27.40;17.87;;;;;;;2.00;72.05;93626.94;517135;28;1098;-69
2023/12/26 00:16:58;;;;;;;24.05;17.02;;;;;;;2.02;72.30;93627.94;518067;28;908;-69
2023/12/26 00:17:13;;;;;;;22.48;16.90;;;;;;;2.05;72.52;93628.94;518827;28;871;-69
2023/12/26 00:17:29;;;;;;;25.33;17.87;;;;;;;2.07;71.93;93629.94;518808;28;780;-69
2023/12/26 00:17:44;;;;;;;27.70;18.45;;;;;;;2.10;72.03;93628.94;518740;28;760;-69
2023/12/26 00:18:00;;;;;;;27.10;18.50;;;;;;;2.13;71.97;93627.97;518849;28;1106;-69
2023/12/26 00:18:16;;;;;;;25.48;17.88;;;;;;;2.16;72.03;93626.25;520393;28;1290;-69
2023/12/26 00:18:32;;;;;;;27.00;18.13;;;;;;;2.14;71.80;93626.72;520868;28;887;-69
2023/12/26 00:18:47;;;;;;;27.27;18.38;;;;;;;2.14;71.99;93629.44;519744;28;769;-69
2023/12/26 00:19:03;;;;;;;24.60;17.17;;;;;;;2.15;71.54;93627.47;518507;28;781;-69
2023/12/26 00:19:19;;;;;;;24.10;17.10;;;;;;;2.14;71.69;93629.44;518699;28;920;-69
2023/12/26 00:19:34;;;;;;;24.67;17.17;;;;;;;2.12;71.42;93631.91;518595;28;769;-68
2023/12/26 00:19:50;;;;;;;24.65;16.70;;;;;;;2.11;72.01;93630.44;517132;28;1271;-68
2023/12/26 00:20:07;;;;;;;26.15;16.83;;;;;;;2.13;71.93;93627.22;516618;28;1361;-68
2023/12/26 00:20:22;;;;;;;28.95;17.63;;;;;;;2.14;72.08;93626.72;517623;28;1070;-68
2023/12/26 00:20:43;;;;;;;28.23;17.93;;;;;;;2.15;72.01;93619.31;516683;28;829;-68
2023/12/26 00:20:58;;;;;;;29.17;18.13;;;;;;;2.15;71.87;93630.94;518422;28;817;-68
2023/12/26 00:21:14;;;;;;;28.60;17.70;;;;;;;2.19;71.44;93631.47;519423;28;1421;-68
2023/12/26 00:21:29;;;;;;;23.30;16.58;;;;;;;2.21;72.23;93629.00;516600;28;809;-68
2023/12/26 00:21:45;;;;;;;25.77;17.03;;;;;;;2.24;72.13;93628.00;517268;28;907;-68
2023/12/26 00:22:00;;;;;;;27.23;17.52;;;;;;;2.26;71.48;93631.00;518025;28;920;-68
2023/12/26 00:22:16;;;;;;;25.50;17.17;;;;;;;2.26;71.40;93617.38;518480;28;1146;-68
2023/12/26 00:22:31;;;;;;;25.30;17.27;;;;;;;2.29;71.20;93629.28;518526;28;1187;-68
2023/12/26 00:22:47;;;;;;;24.90;16.80;;;;;;;2.30;71.17;93630.75;518285;28;1358;-68
2023/12/26 00:23:02;;;;;;;25.45;16.70;;;;;;;2.33;71.26;93626.31;517812;28;789;-68
2023/12/26 00:23:18;;;;;;;24.77;17.03;;;;;;;2.30;71.03;93626.06;516634;28;831;-69
2023/12/26 00:23:35;;;;;;;24.10;16.80;;;;;;;2.32;71.42;93627.56;517829;28;1051;-69
2023/12/26 00:23:50;;;;;;;22.92;16.00;;;;;;;2.26;71.40;93625.53;518586;28;824;-68
2023/12/26 00:24:06;;;;;;;22.13;14.67;;;;;;;2.18;70.66;93624.53;516688;28;940;-68
2023/12/26 00:24:22;;;;;;;21.33;14.00;;;;;;;2.07;71.29;93624.50;516671;28;1418;-68
2023/12/26 00:24:37;;;;;;;18.92;13.02;;;;;;;1.97;71.19;93628.66;516560;28;761;-68
2023/12/26 00:24:53;;;;;;;17.07;12.27;;;;;;;1.84;71.80;93630.34;518181;28;1030;-68
2023/12/26 00:25:08;;;;;;;19.95;12.93;;;;;;;1.75;72.22;93627.81;516653;28;1034;-68
2023/12/26 00:25:24;;;;;;;22.00;14.17;;;;;;;1.68;72.19;93631.75;518666;28;875;-68
2023/12/26 00:25:39;;;;;;;18.70;13.70;;;;;;;1.59;73.02;93631.94;518736;28;804;-68
2023/12/26 00:25:55;;;;;;;17.40;12.97;;;;;;;1.53;72.90;93631.16;518226;28;754;-68
2023/12/26 00:26:10;;;;;;;18.25;12.90;;;;;;;1.48;72.79;93635.34;518743;28;773;-69
2023/12/26 00:26:26;;;;;;;17.30;12.60;;;;;;;1.42;73.18;93631.84;518624;28;1165;-68
2023/12/26 00:26:42;;;;;;;15.57;12.20;;;;;;;1.40;73.14;93631.59;518614;28;765;-68
2023/12/26 00:26:57;;;;;;;16.00;11.82;;;;;;;1.36;73.69;93625.63;517915;28;1316;-68
2023/12/26 00:27:13;;;;;;;15.77;11.77;;;;;;;1.36;73.70;93639.22;517633;28;765;-68
2023/12/26 00:27:28;;;;;;;15.25;12.25;;;;;;;1.36;73.83;93630.31;517565;28;900;-68
2023/12/26 00:27:44;;;;;;;17.97;13.17;;;;;;;1.34;74.52;93633.50;517136;28;741;-69
2023/12/26 00:27:59;;;;;;;19.75;14.35;;;;;;;1.33;74.69;93629.31;517815;28;1052;-68
2023/12/26 00:28:17;;;;;;;19.53;14.47;;;;;;;1.32;74.30;93625.09;516535;28;1412;-69
2023/12/26 00:28:33;;;;;;;19.00;14.07;;;;;;;1.30;74.94;93630.25;518706;28;845;-68
2023/12/26 00:28:48;;;;;;;19.55;14.55;;;;;;;1.29;74.77;93634.22;518183;28;1010;-69
2023/12/26 00:29:04;;;;;;;22.23;15.37;;;;;;;1.29;74.71;93628.03;517841;28;840;-68
2023/12/26 00:29:19;;;;;;;21.13;15.30;;;;;;;1.29;74.85;93634.22;516704;28;824;-68
2023/12/26 00:29:35;;;;;;;19.13;14.20;;;;;;;1.31;74.92;93633.72;519975;28;1325;-68
2023/12/26 00:29:50;;;;;;;18.60;13.23;;;;;;;1.31;74.86;93631.00;518478;28;1580;-68
2023/12/26 00:30:08;;;;;;;18.03;12.57;;;;;;;1.33;75.21;93637.47;517503;28;863;-68
2023/12/26 00:30:23;;;;;;;17.65;12.48;;;;;;;1.37;75.50;93629.81;518587;28;963;-68
2023/12/26 00:30:39;;;;;;;16.47;12.20;;;;;;;1.40;74.76;93628.88;518606;28;1165;-70
2023/12/26 00:30:54;;;;;;;15.60;12.15;;;;;;;1.47;75.15;93630.38;517616;28;805;-68
2023/12/26 00:31:10;;;;;;;16.77;12.77;;;;;;;1.52;74.78;93635.84;516648;28;836;-68
2023/12/26 00:31:25;;;;;;;19.73;13.57;;;;;;;1.57;74.68;93636.38;516709;28;856;-68
2023/12/26 00:31:41;;;;;;;19.27;14.03;;;;;;;1.62;74.36;93627.50;516705;28;837;-69
2023/12/26 00:31:57;;;;;;;18.15;13.65;;;;;;;1.65;74.05;93637.38;518096;28;1914;-69
2023/12/26 00:32:12;;;;;;;19.15;13.25;;;;;;;1.71;74.28;93638.19;518692;28;950;-68
2023/12/26 00:32:28;;;;;;;19.92;13.73;;;;;;;1.74;74.10;93640.66;518721;28;820;-68
2023/12/26 00:32:43;;;;;;;18.80;13.13;;;;;;;1.77;73.59;93631.53;518663;28;788;-68
2023/12/26 00:32:59;;;;;;;16.88;12.60;;;;;;;1.82;73.79;93630.09;518484;28;860;-68
2023/12/26 00:33:14;;;;;;;16.87;12.77;;;;;;;1.60;73.88;93625.28;517807;28;1596;-68
2023/12/26 00:33:30;;;;;;;15.88;12.13;;;;;;;1.53;74.25;93621.03;517157;28;1217;-68
2023/12/26 00:33:48;;;;;;;15.83;12.47;;;;;;;1.52;73.94;93616.06;517762;28;769;-68
2023/12/26 00:34:03;;;;;;;19.13;13.93;;;;;;;1.58;74.05;93621.53;518639;28;868;-68
2023/12/26 00:34:19;;;;;;;19.77;13.93;;;;;;;1.61;74.49;93626.00;517177;28;828;-68
2023/12/26 00:34:34;;;;;;;20.43;13.80;;;;;;;1.65;74.17;93624.53;516648;28;737;-68
2023/12/26 00:34:50;;;;;;;19.65;13.32;;;;;;;1.71;73.86;93643.63;517836;28;1026;-68
2023/12/26 00:35:06;;;;;;;22.20;13.83;;;;;;;1.75;74.01;93647.63;518542;28;793;-68
2023/12/26 00:35:21;;;;;;;20.98;13.35;;;;;;;1.77;74.07;93645.16;517723;28;943;-69
2023/12/26 00:35:37;;;;;;;18.63;12.23;;;;;;;1.77;74.36;93647.13;518534;28;781;-68
2023/12/26 00:35:54;;;;;;;19.83;12.47;;;;;;;1.75;74.47;93641.41;517966;28;1608;-68
2023/12/26 00:36:13;;;;;;;21.73;12.68;;;;;;;1.71;74.03;93638.19;517798;28;824;-69
2023/12/26 00:36:29;;;;;;;19.27;12.20;;;;;;;1.73;74.38;93627.56;516885;28;1310;-68
2023/12/26 00:36:44;;;;;;;20.77;13.37;;;;;;;1.75;73.55;93630.53;517148;28;804;-69
2023/12/26 00:37:00;;;;;;;23.17;14.40;;;;;;;1.77;72.57;93620.66;518481;28;836;-70
2023/12/26 00:37:15;;;;;;;21.67;13.50;;;;;;;1.76;72.64;93623.84;518789;28;927;-71
2023/12/26 00:37:34;;;;;;;19.80;12.68;;;;;;;1.76;72.09;93623.84;518836;28;816;-70
2023/12/26 00:37:49;;;;;;;17.48;12.27;;;;;;;1.78;72.34;93630.28;518620;28;962;-69
2023/12/26 00:38:04;;;;;;;15.13;11.57;;;;;;;1.81;72.31;93639.47;517129;28;838;-70
2023/12/26 00:38:21;;;;;;;15.82;11.77;;;;;;;1.82;72.42;93643.69;516708;28;793;-71
2023/12/26 00:38:36;;;;;;;18.05;11.80;;;;;;;1.82;71.80;93636.25;516714;28;822;-71
2023/12/26 00:38:52;;;;;;;19.38;11.55;;;;;;;1.84;72.21;93644.66;518377;28;837;-71
2023/12/26 00:39:08;;;;;;;15.93;10.73;;;;;;;1.85;72.16;93645.41;518555;28;2204;-70
2023/12/26 00:39:23;;;;;;;15.40;9.77;;;;;;;1.82;72.22;93633.53;518763;28;1125;-70
2023/12/26 00:39:40;;;;;;;16.85;9.75;;;;;;;1.81;72.44;93637.50;518781;28;820;-69
2023/12/26 00:39:55;;;;;;;13.40;9.05;;;;;;;1.81;72.45;93632.06;518123;28;1446;-69
2023/12/26 00:40:12;;;;;;;11.93;8.65;;;;;;;1.82;72.18;93627.34;518589;28;1009;-69
2023/12/26 00:40:28;;;;;;;13.23;9.77;;;;;;;1.66;72.12;93595.34;517604;28;960;-69
2023/12/26 00:40:43;;;;;;;15.23;10.63;;;;;;;1.80;71.81;93632.56;517171;28;750;-69
2023/12/26 00:40:59;;;;;;;17.25;11.20;;;;;;;1.80;71.56;93625.09;517541;28;1150;-70
2023/12/26 00:41:14;;;;;;;16.90;10.30;;;;;;;1.78;71.83;93624.09;516720;28;999;-69
2023/12/26 00:41:30;;;;;;;14.25;9.68;;;;;;;1.76;71.78;93627.31;518686;28;820;-69
2023/12/26 00:41:45;;;;;;;14.87;10.17;;;;;;;1.78;71.46;93635.00;518605;28;911;-69
2023/12/26 00:42:02;;;;;;;15.57;10.30;;;;;;;1.78;71.89;93635.75;518001;28;984;-69
2023/12/26 00:42:17;;;;;;;15.60;10.18;;;;;;;1.79;71.71;93637.25;518662;28;1086;-69
2023/12/26 00:42:33;;;;;;;15.30;10.27;;;;;;;1.79;71.81;93639.22;518733;28;849;-69
2023/12/26 00:42:48;;;;;;;15.23;10.10;;;;;;;1.79;71.84;93644.66;518682;28;1107;-69
2023/12/26 00:43:03;;;;;;;14.30;9.77;;;;;;;1.78;71.84;93635.00;518641;28;852;-69
2023/12/26 00:43:19;;;;;;;11.70;9.57;;;;;;;1.78;72.05;93630.28;518013;28;1727;-69
2023/12/26 00:43:34;;;;;;;12.23;9.57;;;;;;;1.80;72.25;93632.56;518717;28;970;-69
2023/12/26 00:43:51;;;;;;;13.00;9.57;;;;;;;1.81;72.00;93623.13;518302;28;1026;-69
2023/12/26 00:44:07;;;;;;;12.68;9.60;;;;;;;1.78;72.41;93633.00;518693;28;892;-70
2023/12/26 00:44:22;;;;;;;14.30;10.52;;;;;;;1.72;73.04;93634.97;517039;28;836;-69
2023/12/26 00:44:38;;;;;;;16.73;11.90;;;;;;;1.71;72.29;93627.31;516717;28;749;-69
2023/12/26 00:44:53;;;;;;;21.42;13.30;;;;;;;1.71;72.84;93627.31;518417;28;919;-69
2023/12/26 00:45:09;;;;;;;22.17;13.47;;;;;;;1.72;72.76;93634.22;518634;28;1208;-69
2023/12/26 00:45:25;;;;;;;20.20;13.30;;;;;;;1.74;73.15;93629.03;518590;28;1051;-69
2023/12/26 00:45:40;;;;;;;19.88;13.70;;;;;;;1.77;72.66;93634.25;518493;28;770;-69
2023/12/26 00:45:56;;;;;;;18.53;13.60;;;;;;;1.81;72.89;93634.78;518153;28;1657;-69
2023/12/26 00:46:12;;;;;;;18.48;13.38;;;;;;;1.84;72.83;93624.91;518554;28;844;-69
2023/12/26 00:46:27;;;;;;;18.37;13.37;;;;;;;1.85;72.49;93632.56;518585;28;910;-69
2023/12/26 00:46:46;;;;;;;16.33;12.32;;;;;;;1.87;72.42;93623.91;518453;28;931;-69
2023/12/26 00:47:01;;;;;;;14.48;11.00;;;;;;;1.89;72.46;93627.63;516824;28;1170;-68
2023/12/26 00:47:17;;;;;;;14.13;11.10;;;;;;;1.91;72.39;93630.59;516555;28;837;-69
2023/12/26 00:47:33;;;;;;;16.27;12.17;;;;;;;1.92;72.04;93634.84;516486;28;885;-69
2023/12/26 00:47:49;;;;;;;20.70;13.00;;;;;;;1.95;72.58;93633.84;517790;28;867;-68
2023/12/26 00:48:04;;;;;;;20.87;13.47;;;;;;;1.70;71.87;93598.59;517127;28;787;-69
2023/12/26 00:48:20;;;;;;;19.85;13.70;;;;;;;1.93;72.19;93641.00;518342;28;1034;-69
2023/12/26 00:48:36;;;;;;;21.08;14.10;;;;;;;1.87;72.31;93627.38;518707;28;805;-69
2023/12/26 00:48:51;;;;;;;20.93;13.63;;;;;;;1.95;72.02;93628.38;518625;28;761;-68
2023/12/26 00:49:06;;;;;;;20.98;13.07;;;;;;;1.94;71.84;93629.63;518572;28;761;-69
2023/12/26 00:49:22;;;;;;;21.33;13.67;;;;;;;1.95;71.76;93639.28;518740;28;808;-68
2023/12/26 00:49:37;;;;;;;20.98;14.05;;;;;;;1.93;72.19;93622.69;518734;28;781;-69
2023/12/26 00:49:56;;;;;;;20.40;13.90;;;;;;;1.96;71.53;93629.13;518087;28;1402;-68
2023/12/26 00:50:13;;;;;;;19.33;13.75;;;;;;;1.97;71.60;93633.38;517665;28;953;-69
2023/12/26 00:50:29;;;;;;;22.08;14.98;;;;;;;1.98;71.58;93632.13;517619;28;825;-69
2023/12/26 00:50:44;;;;;;;25.27;17.25;;;;;;;1.99;71.39;93631.63;518752;28;753;-68
2023/12/26 00:51:00;;;;;;;26.63;18.47;;;;;;;2.01;71.64;93631.16;517770;28;801;-69
2023/12/26 00:51:15;;;;;;;25.17;17.17;;;;;;;2.03;71.82;93634.88;516681;28;837;-68
2023/12/26 00:51:31;;;;;;;25.33;17.17;;;;;;;2.04;71.09;93635.59;518484;28;1224;-69
2023/12/26 00:51:46;;;;;;;23.95;17.17;;;;;;;2.06;71.42;93638.59;518631;28;797;-68
2023/12/26 00:52:02;;;;;;;23.57;16.87;;;;;;;2.06;71.07;93630.41;518130;28;1969;-69
2023/12/26 00:52:18;;;;;;;26.58;17.30;;;;;;;2.08;71.24;93628.69;516573;28;777;-69
2023/12/26 00:52:33;;;;;;;26.80;17.63;;;;;;;2.08;71.36;93630.69;516661;28;749;-69
2023/12/26 00:52:49;;;;;;;27.93;17.63;;;;;;;2.12;71.54;93631.19;517816;28;1027;-68
2023/12/26 00:53:05;;;;;;;27.97;17.80;;;;;;;2.13;70.90;93632.69;518579;28;1084;-69
2023/12/26 00:53:22;;;;;;;25.98;17.98;;;;;;;2.14;70.71;93634.19;517194;28;1770;-69
2023/12/26 00:53:37;;;;;;;26.52;18.23;;;;;;;2.12;70.84;93633.94;518531;28;1010;-69
2023/12/26 00:53:53;;;;;;;24.83;17.80;;;;;;;2.13;71.06;93627.97;518604;28;745;-69
2023/12/26 00:54:08;;;;;;;24.58;17.13;;;;;;;2.14;70.99;93628.72;518724;28;824;-66
2023/12/26 00:54:24;;;;;;;26.23;17.80;;;;;;;2.15;70.77;93630.19;517789;28;1071;-66
2023/12/26 00:54:39;;;;;;;27.83;18.02;;;;;;;2.13;70.65;93638.88;518716;28;919;-66
2023/12/26 00:54:55;;;;;;;28.00;17.87;;;;;;;2.08;70.90;93623.25;518270;28;805;-66
2023/12/26 00:55:10;;;;;;;26.48;17.55;;;;;;;2.00;71.63;93640.53;518607;28;1092;-66
2023/12/26 00:55:26;;;;;;;24.97;17.63;;;;;;;1.87;71.67;93635.53;517179;28;875;-66
2023/12/26 00:55:41;;;;;;;24.65;17.52;;;;;;;1.76;71.66;93638.22;516889;28;832;-66
2023/12/26 00:55:57;;;;;;;25.03;17.17;;;;;;;1.72;72.24;93636.94;518605;28;1014;-66
2023/12/26 00:56:13;;;;;;;24.58;17.48;;;;;;;1.70;72.08;93633.97;518737;28;1018;-66
2023/12/26 00:56:28;;;;;;;24.77;17.30;;;;;;;1.70;72.72;93632.00;518645;28;803;-66
2023/12/26 00:56:44;;;;;;;25.10;17.30;;;;;;;1.70;72.13;93639.41;518705;28;890;-65
2023/12/26 00:57:00;;;;;;;24.77;17.83;;;;;;;1.75;72.42;93630.53;517689;28;1734;-66
2023/12/26 00:57:15;;;;;;;24.92;18.00;;;;;;;1.67;72.76;93610.47;517838;28;1689;-66
2023/12/26 00:57:33;;;;;;;26.87;18.03;;;;;;;1.80;72.13;93633.28;517265;28;1196;-66
2023/12/26 00:57:48;;;;;;;29.30;19.27;;;;;;;1.83;72.94;93635.03;517637;28;828;-66
2023/12/26 00:58:04;;;;;;;29.87;19.80;;;;;;;1.74;72.49;93615.41;518502;28;1097;-66
2023/12/26 00:58:19;;;;;;;28.73;19.08;;;;;;;1.89;72.13;93627.63;518634;28;769;-66
2023/12/26 00:58:35;;;;;;;26.07;17.63;;;;;;;1.91;72.51;93636.03;518620;28;781;-66
2023/12/26 00:58:50;;;;;;;25.85;17.67;;;;;;;1.94;71.87;93628.88;518427;28;971;-67
2023/12/26 00:59:06;;;;;;;28.42;18.38;;;;;;;1.95;71.53;93631.13;517331;28;849;-67
2023/12/26 00:59:21;;;;;;;28.30;18.13;;;;;;;1.97;71.74;93630.66;516596;28;784;-66
2023/12/26 00:59:37;;;;;;;26.52;18.17;;;;;;;1.97;72.13;93623.19;517641;28;1058;-66
2023/12/26 00:59:52;;;;;;;29.70;19.23;;;;;;;2.01;71.53;93633.88;517972;28;1279;-66
2023/12/26 01:00:08;;;;;;;28.60;19.55;;;;;;;2.02;71.59;93632.63;517950;28;1663;-66
2023/12/26 01:00:24;;;;;;;27.15;18.85;;;;;;;2.00;71.72;93633.13;516828;28;992;-66
2023/12/26 01:00:39;;;;;;;27.20;18.03;;;;;;;1.89;72.05;93632.31;519245;28;803;-66
2023/12/26 01:00:55;;;;;;;27.13;18.67;;;;;;;1.72;72.52;93634.22;518044;28;817;-66
2023/12/26 01:01:10;;;;;;;29.33;20.33;;;;;;;1.60;72.43;93628.00;518445;28;889;-66
2023/12/26 01:01:26;;;;;;;29.27;19.77;;;;;;;1.54;72.81;93633.38;518628;28;836;-67
2023/12/26 01:01:41;;;;;;;30.27;19.33;;;;;;;1.54;72.91;93632.63;518715;28;991;-67
2023/12/26 01:02:01;;;;;;;31.02;19.50;;;;;;;1.56;73.11;93637.59;517529;28;1069;-66
2023/12/26 01:02:16;;;;;;;30.13;19.58;;;;;;;1.57;72.88;93634.41;516459;28;852;-66
2023/12/26 01:02:32;;;;;;;28.63;19.25;;;;;;;1.59;72.62;93633.91;516537;28;825;-66
2023/12/26 01:02:48;;;;;;;27.07;19.10;;;;;;;1.55;72.55;93634.13;517546;28;797;-66
2023/12/26 01:03:03;;;;;;;29.08;19.10;;;;;;;1.44;73.33;93634.81;518452;28;817;-66
2023/12/26 01:03:22;;;;;;;28.63;18.20;;;;;;;1.34;73.50;93635.50;518452;28;1124;-66
2023/12/26 01:03:37;;;;;;;27.58;17.55;;;;;;;1.26;73.27;93635.19;518509;28;915;-66
2023/12/26 01:03:53;;;;;;;25.65;16.63;;;;;;;1.26;73.57;93643.34;518502;28;730;-66
2023/12/26 01:04:08;;;;;;;21.70;15.63;;;;;;;1.25;73.66;93631.00;518779;28;796;-66
2023/12/26 01:04:24;;;;;;;22.85;16.35;;;;;;;1.27;73.78;93639.41;518705;28;911;-66
2023/12/26 01:04:39;;;;;;;23.67;16.80;;;;;;;1.27;74.38;93635.94;518704;28;781;-66
2023/12/26 01:04:56;;;;;;;22.00;15.30;;;;;;;1.28;74.03;93637.41;517510;28;1719;-66
2023/12/26 01:05:11;;;;;;;20.33;14.25;;;;;;;1.30;73.55;93635.69;516586;28;857;-66
2023/12/26 01:05:27;;;;;;;18.77;14.13;;;;;;;1.27;74.23;93642.13;518667;28;797;-66
2023/12/26 01:05:42;;;;;;;18.40;14.23;;;;;;;1.23;74.14;93640.84;518726;28;745;-67
2023/12/26 01:05:58;;;;;;;20.60;13.77;;;;;;;1.18;74.18;93639.59;518507;28;907;-67
2023/12/26 01:06:16;;;;;;;20.87;13.10;;;;;;;1.12;74.49;93640.78;518541;28;878;-67
2023/12/26 01:06:32;;;;;;;17.42;13.00;;;;;;;1.07;74.90;93634.06;518544;28;1308;-67
2023/12/26 01:06:47;;;;;;;17.87;13.47;;;;;;;1.06;74.92;93637.28;518525;28;773;-67
2023/12/26 01:07:05;;;;;;;19.05;13.13;;;;;;;1.07;75.32;93639.50;516405;28;749;-67
2023/12/26 01:07:20;;;;;;;16.70;12.48;;;;;;;1.03;75.54;93638.22;516393;28;1625;-67
2023/12/26 01:07:36;;;;;;;17.25;13.25;;;;;;;1.02;76.22;93634.03;517326;28;856;-67
2023/12/26 01:07:51;;;;;;;18.20;13.73;;;;;;;1.02;76.19;93634.75;517827;28;1094;-67
2023/12/26 01:08:09;;;;;;;19.58;13.45;;;;;;;0.99;75.90;93635.75;516958;28;1076;-67
2023/12/26 01:08:24;;;;;;;22.48;14.35;;;;;;;0.96;76.34;93639.41;518715;28;831;-67
2023/12/26 01:08:40;;;;;;;20.20;13.95;;;;;;;0.96;76.73;93636.69;518716;28;785;-67
2023/12/26 01:08:55;;;;;;;19.57;13.60;;;;;;;0.99;76.60;93641.16;518168;28;797;-67
2023/12/26 01:09:12;;;;;;;17.73;12.48;;;;;;;1.02;76.64;93642.19;517561;28;1161;-66
2023/12/26 01:09:27;;;;;;;15.75;11.82;;;;;;;1.09;76.51;93639.00;519609;28;1165;-67
2023/12/26 01:09:43;;;;;;;17.55;13.52;;;;;;;1.15;76.25;93634.38;516697;28;1212;-67
2023/12/26 01:10:02;;;;;;;20.75;14.63;;;;;;;1.20;76.47;93634.41;518503;28;773;-67
2023/12/26 01:10:18;;;;;;;20.60;14.15;;;;;;;1.26;75.77;93635.19;517810;28;1529;-66
2023/12/26 01:10:34;;;;;;;18.53;12.93;;;;;;;1.31;76.00;93633.72;517188;28;1003;-67
2023/12/26 01:10:51;;;;;;;18.23;13.02;;;;;;;1.35;75.85;93635.00;516946;28;880;-67
2023/12/26 01:11:06;;;;;;;17.42;12.82;;;;;;;1.39;75.37;93640.97;517855;28;1313;-67
2023/12/26 01:11:22;;;;;;;16.05;12.15;;;;;;;1.42;75.50;93633.81;516431;28;809;-67
2023/12/26 01:11:37;;;;;;;17.40;12.70;;;;;;;1.43;75.22;93636.03;516426;28;757;-67
2023/12/26 01:11:53;;;;;;;19.85;13.15;;;;;;;1.47;74.79;93633.09;518246;28;820;-67
2023/12/26 01:12:08;;;;;;;19.97;13.10;;;;;;;1.49;75.54;93636.09;518503;28;1971;-67
2023/12/26 01:12:24;;;;;;;19.23;12.88;;;;;;;1.52;74.92;93633.13;517866;28;825;-66
2023/12/26 01:12:39;;;;;;;18.80;12.43;;;;;;;1.57;74.82;93630.91;517079;28;1083;-67
2023/12/26 01:12:55;;;;;;;18.52;12.48;;;;;;;1.60;74.64;93633.44;517960;28;852;-67
2023/12/26 01:13:10;;;;;;;18.37;13.10;;;;;;;1.64;74.15;93635.91;518381;28;758;-67
2023/12/26 01:13:30;;;;;;;17.05;12.32;;;;;;;1.67;74.75;93634.97;518399;28;797;-67
2023/12/26 01:13:45;;;;;;;17.23;12.35;;;;;;;1.67;73.84;93637.69;518159;28;1154;-67
2023/12/26 01:14:00;;;;;;;18.35;12.45;;;;;;;1.67;74.03;93630.22;517931;28;1281;-67
2023/12/26 01:14:16;;;;;;;18.43;12.43;;;;;;;1.70;73.89;93631.25;518445;28;1132;-67
2023/12/26 01:14:31;;;;;;;18.20;12.07;;;;;;;1.71;74.04;93628.03;516546;28;746;-67
2023/12/26 01:14:47;;;;;;;16.23;11.67;;;;;;;1.53;73.71;93603.94;516633;28;1448;-67
2023/12/26 01:15:03;;;;;;;15.70;11.43;;;;;;;1.51;73.56;93600.97;518264;28;920;-67
2023/12/26 01:15:18;;;;;;;16.00;11.53;;;;;;;1.78;73.73;93637.72;517822;28;1069;-67
2023/12/26 01:15:34;;;;;;;14.05;11.02;;;;;;;1.80;73.45;93632.56;516641;28;766;-68
2023/12/26 01:15:49;;;;;;;13.70;10.75;;;;;;;1.83;73.28;93637.00;516651;28;1367;-68